Time;durP1;ratioP1;P1;durP2;ratioP2;P2;SDS_P1;SDS_P2;PMS_P1;PMS_P2;Temp;Humidity;BMP_temperature;BMP_pressure;BME280_temperature;BME280_humidity;BME280_pressure;Samples;Min_cycle;Max_cycle;Signal;HPM_P1;HPM_P2
2023/07/09 00:00:00;;;;;;;12.25;6.20;;;;;;;;;;5112638;27;20551;-69
2023/07/09 00:02:27;;;;;;;11.75;5.97;;;;;;;;;;5112621;28;20043;-69
2023/07/09 00:04:53;;;;;;;12.55;6.38;;;;;;;;;;5113088;28;20080;-69
2023/07/09 00:07:28;;;;;;;9.23;5.75;;;;;;;;;;5113475;28;20040;-69
2023/07/09 00:09:55;;;;;;;13.30;7.60;;;;;;;;;;5113384;27;20043;-69
2023/07/09 00:12:22;;;;;;;10.38;7.07;;;;;;;;;;5112408;28;20043;-69
2023/07/09 00:14:48;;;;;;;10.43;7.20;;;;;;;;;;5112240;28;20066;-69
2023/07/09 00:17:27;;;;;;;12.52;6.90;;;;;;;;;;5111706;27;20043;-69
2023/07/09 00:19:53;;;;;;;11.88;6.88;;;;;;;;;;5091908;28;20044;-69
2023/07/09 00:22:20;;;;;;;10.50;6.72;;;;;;;;;;5113339;28;20043;-69
2023/07/09 00:24:56;;;;;;;10.75;6.70;;;;;;;;;;5113522;28;20517;-68
2023/07/09 00:27:25;;;;;;;13.27;7.13;;;;;;;;;;5111320;28;20040;-69
2023/07/09 00:29:52;;;;;;;10.10;6.55;;;;;;;;;;5112030;27;20071;-69
2023/07/09 00:32:20;;;;;;;11.90;6.45;;;;;;;;;;5099349;28;20376;-69
2023/07/09 00:34:50;;;;;;;11.95;7.25;;;;;;;;;;5111965;27;20083;-69
2023/07/09 00:37:21;;;;;;;13.13;7.50;;;;;;;;;;5113037;28;20109;-69
2023/07/09 00:39:48;;;;;;;10.52;6.72;;;;;;;;;;5111520;28;20051;-69
2023/07/09 00:42:19;;;;;;;12.00;7.57;;;;;;;;;;5111415;28;20031;-69
2023/07/09 00:44:47;;;;;;;12.07;6.80;;;;;;;;;;5113165;28;20032;-69
2023/07/09 00:47:20;;;;;;;10.10;7.20;;;;;;;;;;5112088;28;20399;-69
2023/07/09 00:49:46;;;;;;;;;;;;;;;;;;5114094;28;20070;-69
2023/07/09 00:52:33;;;;;;;9.55;6.43;;;;;;;;;;5112685;27;20443;-69
2023/07/09 00:55:03;;;;;;;14.98;6.82;;;;;;;;;;5110448;28;20082;-69
2023/07/09 00:57:29;;;;;;;11.13;7.20;;;;;;;;;;5112268;28;20047;-69
2023/07/09 01:00:14;;;;;;;12.63;7.13;;;;;;;;;;5111858;27;20403;-69
2023/07/09 01:02:44;;;;;;;12.02;6.85;;;;;;;;;;5109626;28;20053;-69
2023/07/09 01:05:13;;;;;;;15.63;7.82;;;;;;;;;;5112376;28;20085;-69
2023/07/09 01:07:40;;;;;;;12.65;7.15;;;;;;;;;;5111533;27;20059;-69
2023/07/09 01:10:06;;;;;;;9.82;6.63;;;;;;;;;;5110862;27;20048;-69
2023/07/09 01:12:32;;;;;;;12.65;7.57;;;;;;;;;;5110846;28;20063;-69
2023/07/09 01:14:59;;;;;;;12.93;7.28;;;;;;;;;;5110893;28;20055;-69
2023/07/09 01:17:27;;;;;;;11.95;7.38;;;;;;;;;;5109251;28;20123;-69
2023/07/09 01:19:54;;;;;;;11.95;7.38;;;;;;;;;;5111361;28;20047;-69
2023/07/09 01:22:21;;;;;;;11.75;7.13;;;;;;;;;;5110381;28;20861;-69
2023/07/09 01:24:50;;;;;;;13.40;6.50;;;;;;;;;;5112069;28;20363;-69
2023/07/09 01:27:17;;;;;;;16.20;7.90;;;;;;;;;;5112265;28;20456;-69
2023/07/09 01:29:48;;;;;;;10.63;6.95;;;;;;;;;;5111784;28;20047;-69
2023/07/09 01:32:15;;;;;;;14.77;7.55;;;;;;;;;;5112441;28;20044;-68
2023/07/09 01:34:41;;;;;;;15.93;7.82;;;;;;;;;;5112411;28;20043;-69
2023/07/09 01:37:07;;;;;;;13.45;7.55;;;;;;;;;;5110051;28;20123;-68
2023/07/09 01:39:35;;;;;;;11.75;7.85;;;;;;;;;;5111556;27;20402;-69
2023/07/09 01:42:02;;;;;;;13.75;7.97;;;;;;;;;;5111102;28;20047;-69
2023/07/09 01:44:29;;;;;;;14.77;8.25;;;;;;;;;;5109877;28;20051;-69
2023/07/09 01:46:55;;;;;;;13.20;7.80;;;;;;;;;;5111190;28;20067;-69
2023/07/09 01:49:21;;;;;;;14.45;8.70;;;;;;;;;;5109738;28;20144;-69
2023/07/09 01:51:49;;;;;;;11.57;7.45;;;;;;;;;;5109979;28;20487;-68
2023/07/09 01:54:16;;;;;;;14.20;7.90;;;;;;;;;;5128215;28;20043;-69
2023/07/09 01:56:42;;;;;;;11.90;7.93;;;;;;;;;;5111958;28;20533;-68
2023/07/09 01:59:11;;;;;;;12.30;8.32;;;;;;;;;;5109621;28;20101;-68
2023/07/09 02:01:38;;;;;;;14.15;7.45;;;;;;;;;;5112051;28;20090;-69
2023/07/09 02:04:04;;;;;;;11.60;8.13;;;;;;;;;;5110593;28;20047;-69
2023/07/09 02:06:31;;;;;;;14.90;8.57;;;;;;;;;;5110355;28;20112;-69
2023/07/09 02:08:58;;;;;;;10.98;8.25;;;;;;;;;;5112410;28;20054;-69
2023/07/09 02:11:24;;;;;;;11.05;7.80;;;;;;;;;;5113798;28;20050;-69
2023/07/09 02:13:51;;;;;;;11.50;7.65;;;;;;;;;;5116187;28;20055;-69
2023/07/09 02:16:17;;;;;;;15.07;7.65;;;;;;;;;;5116317;27;20580;-68
2023/07/09 02:18:43;;;;;;;12.05;8.15;;;;;;;;;;5114175;27;20138;-69
2023/07/09 02:21:09;;;;;;;14.82;7.53;;;;;;;;;;5115037;27;20047;-68
2023/07/09 02:23:35;;;;;;;16.50;8.32;;;;;;;;;;5116014;28;20081;-69
2023/07/09 02:26:01;;;;;;;12.98;8.32;;;;;;;;;;5113344;28;20097;-69
2023/07/09 02:28:28;;;;;;;15.20;8.27;;;;;;;;;;5114527;27;20035;-69
2023/07/09 02:30:54;;;;;;;13.15;8.27;;;;;;;;;;5115855;27;20123;-69
2023/07/09 02:33:20;;;;;;;10.95;7.13;;;;;;;;;;5115293;27;20104;-69
2023/07/09 02:35:46;;;;;;;12.05;7.32;;;;;;;;;;5114352;28;20070;-69
2023/07/09 02:38:13;;;;;;;11.88;7.78;;;;;;;;;;5114730;27;20131;-69
2023/07/09 02:40:39;;;;;;;10.70;7.53;;;;;;;;;;5114461;28;20047;-69
2023/07/09 02:43:05;;;;;;;16.42;7.47;;;;;;;;;;5114796;28;20044;-69
2023/07/09 02:45:32;;;;;;;11.13;7.35;;;;;;;;;;5114331;28;20035;-69
2023/07/09 02:47:58;;;;;;;12.02;7.47;;;;;;;;;;5112234;28;20055;-69
2023/07/09 02:50:24;;;;;;;12.00;7.97;;;;;;;;;;5097013;27;20399;-69
2023/07/09 02:52:50;;;;;;;13.20;8.07;;;;;;;;;;5114646;27;20059;-69
2023/07/09 02:55:16;;;;;;;10.15;7.47;;;;;;;;;;5112504;27;20057;-69
2023/07/09 02:57:42;;;;;;;15.18;7.93;;;;;;;;;;5112804;27;20231;-69
2023/07/09 03:00:09;;;;;;;13.90;7.53;;;;;;;;;;5114102;27;20048;-69
2023/07/09 03:02:35;;;;;;;15.55;8.90;;;;;;;;;;5116344;27;20390;-68
2023/07/09 03:05:01;;;;;;;14.45;8.10;;;;;;;;;;5115031;28;20092;-69
2023/07/09 03:07:28;;;;;;;12.57;7.47;;;;;;;;;;5113233;27;20079;-69
2023/07/09 03:09:54;;;;;;;11.57;8.07;;;;;;;;;;5115287;27;20044;-69
2023/07/09 03:12:20;;;;;;;13.85;7.55;;;;;;;;;;5117063;27;20133;-69
2023/07/09 03:14:49;;;;;;;11.25;8.13;;;;;;;;;;5113619;27;20050;-69
2023/07/09 03:17:15;;;;;;;12.45;8.23;;;;;;;;;;5113309;27;20055;-69
2023/07/09 03:19:41;;;;;;;14.15;8.18;;;;;;;;;;5112922;27;20127;-69
2023/07/09 03:22:08;;;;;;;11.02;8.00;;;;;;;;;;5110998;27;20169;-69
2023/07/09 03:24:34;;;;;;;12.80;9.20;;;;;;;;;;5113696;27;20483;-69
2023/07/09 03:27:00;;;;;;;19.05;8.70;;;;;;;;;;5113292;28;20044;-69
2023/07/09 03:29:27;;;;;;;16.05;9.45;;;;;;;;;;5112542;28;20056;-69
2023/07/09 03:31:53;;;;;;;18.25;8.98;;;;;;;;;;5114554;28;20050;-69
2023/07/09 03:34:19;;;;;;;14.68;8.43;;;;;;;;;;5113275;28;20084;-69
2023/07/09 03:36:45;;;;;;;17.17;8.55;;;;;;;;;;5111960;28;20516;-68
2023/07/09 03:39:12;;;;;;;11.80;8.52;;;;;;;;;;5104573;28;20108;-68
2023/07/09 03:41:38;;;;;;;11.20;8.40;;;;;;;;;;5113796;27;20372;-69
2023/07/09 03:44:04;;;;;;;13.18;8.68;;;;;;;;;;5112225;28;20139;-69
2023/07/09 03:46:30;;;;;;;11.98;8.65;;;;;;;;;;5113034;28;20131;-69
2023/07/09 03:48:59;;;;;;;12.90;8.38;;;;;;;;;;5112633;27;20047;-69
2023/07/09 03:51:25;;;;;;;14.40;8.55;;;;;;;;;;5112443;27;20043;-68
2023/07/09 03:53:51;;;;;;;11.55;8.15;;;;;;;;;;5114147;28;20036;-69
2023/07/09 03:56:17;;;;;;;12.23;8.38;;;;;;;;;;5112682;28;20151;-68
2023/07/09 03:58:44;;;;;;;11.88;7.95;;;;;;;;;;5113302;27;20404;-69
2023/07/09 04:01:10;;;;;;;13.48;8.35;;;;;;;;;;5114148;28;20551;-68
2023/07/09 04:03:36;;;;;;;19.30;9.43;;;;;;;;;;5112957;28;20042;-68
2023/07/09 04:06:02;;;;;;;13.32;8.43;;;;;;;;;;5097964;28;20142;-68
2023/07/09 04:08:28;;;;;;;13.23;9.57;;;;;;;;;;5111876;27;20044;-69
2023/07/09 04:10:56;;;;;;;12.90;9.07;;;;;;;;;;5112520;28;20075;-69
2023/07/09 04:13:22;;;;;;;15.32;8.23;;;;;;;;;;5112543;28;20066;-69
2023/07/09 04:15:49;;;;;;;13.30;8.57;;;;;;;;;;5114143;27;20044;-69
2023/07/09 04:18:16;;;;;;;12.63;8.70;;;;;;;;;;5111944;28;20051;-68
2023/07/09 04:20:42;;;;;;;14.45;8.05;;;;;;;;;;5113456;27;20051;-69
2023/07/09 04:23:15;;;;;;;15.10;9.10;;;;;;;;;;5113763;28;20389;-68
2023/07/09 04:25:41;;;;;;;13.52;8.95;;;;;;;;;;5111399;27;20043;-69
2023/07/09 04:28:08;;;;;;;10.85;8.05;;;;;;;;;;5114396;27;20344;-68
2023/07/09 04:30:34;;;;;;;12.48;8.93;;;;;;;;;;5120456;27;20054;-69
2023/07/09 04:33:00;;;;;;;13.98;8.68;;;;;;;;;;5104118;28;20431;-69
2023/07/09 04:35:26;;;;;;;16.17;8.75;;;;;;;;;;5100329;28;20036;-68
2023/07/09 04:37:52;;;;;;;16.95;8.27;;;;;;;;;;5103749;28;20100;-69
2023/07/09 04:40:19;;;;;;;18.35;9.32;;;;;;;;;;5106672;28;20547;-68
2023/07/09 04:42:45;;;;;;;14.90;8.30;;;;;;;;;;5090897;28;20051;-68
2023/07/09 04:45:12;;;;;;;12.23;8.57;;;;;;;;;;5108205;28;20043;-69
2023/07/09 04:47:39;;;;;;;13.15;8.50;;;;;;;;;;5109610;28;20063;-69
2023/07/09 04:50:06;;;;;;;11.75;9.07;;;;;;;;;;5113051;28;20071;-69
2023/07/09 04:52:32;;;;;;;12.98;9.07;;;;;;;;;;5102863;28;20051;-69
2023/07/09 04:54:58;;;;;;;12.88;9.15;;;;;;;;;;5084643;28;20051;-69
2023/07/09 04:57:25;;;;;;;13.68;9.48;;;;;;;;;;5104201;28;20044;-69
2023/07/09 04:59:51;;;;;;;14.13;7.85;;;;;;;;;;5111441;28;20040;-68
2023/07/09 05:02:17;;;;;;;13.02;8.38;;;;;;;;;;5109072;28;20036;-68
2023/07/09 05:04:43;;;;;;;14.70;8.73;;;;;;;;;;5109322;27;20097;-68
2023/07/09 05:07:10;;;;;;;13.07;8.75;;;;;;;;;;5112106;28;20038;-68
2023/07/09 05:09:36;;;;;;;11.95;8.68;;;;;;;;;;5111537;27;20040;-68
2023/07/09 05:12:02;;;;;;;16.25;8.13;;;;;;;;;;5112846;28;20051;-68
2023/07/09 05:14:29;;;;;;;15.27;9.18;;;;;;;;;;5111431;28;20059;-68
2023/07/09 05:16:55;;;;;;;14.27;8.23;;;;;;;;;;5111105;28;20890;-68
2023/07/09 05:19:21;;;;;;;15.52;8.60;;;;;;;;;;5112618;28;20108;-68
2023/07/09 05:21:47;;;;;;;11.68;8.45;;;;;;;;;;5111293;28;20051;-68
2023/07/09 05:24:13;;;;;;;13.18;9.02;;;;;;;;;;5110211;27;20063;-68
2023/07/09 05:26:39;;;;;;;13.20;8.63;;;;;;;;;;5112454;28;20357;-68
2023/07/09 05:29:06;;;;;;;13.73;9.02;;;;;;;;;;5110046;27;20044;-68
2023/07/09 05:31:33;;;;;;;13.93;9.32;;;;;;;;;;5111985;28;20054;-68
2023/07/09 05:34:00;;;;;;;11.20;8.23;;;;;;;;;;5110140;27;20043;-68
2023/07/09 05:36:27;;;;;;;13.10;8.48;;;;;;;;;;5111476;28;20252;-68
2023/07/09 05:38:53;;;;;;;13.30;8.63;;;;;;;;;;5112367;28;20487;-68
2023/07/09 05:41:19;;;;;;;14.32;8.35;;;;;;;;;;5111260;28;20416;-68
2023/07/09 05:43:46;;;;;;;16.05;9.18;;;;;;;;;;5117201;27;20128;-68
2023/07/09 05:46:13;;;;;;;13.40;8.98;;;;;;;;;;5111194;28;20047;-68
2023/07/09 05:48:41;;;;;;;12.13;8.55;;;;;;;;;;5104337;27;20471;-69
2023/07/09 05:51:07;;;;;;;14.63;8.60;;;;;;;;;;5109830;28;20097;-68
2023/07/09 05:53:33;;;;;;;13.35;9.43;;;;;;;;;;5111278;28;20043;-68
2023/07/09 05:55:59;;;;;;;14.40;9.13;;;;;;;;;;5112298;28;20130;-68
2023/07/09 05:58:26;;;;;;;13.98;9.57;;;;;;;;;;5111244;28;20065;-68
2023/07/09 06:00:53;;;;;;;12.18;8.93;;;;;;;;;;5109914;28;20541;-68
2023/07/09 06:03:20;;;;;;;11.95;8.98;;;;;;;;;;5111603;28;20372;-69
2023/07/09 06:05:48;;;;;;;12.85;8.82;;;;;;;;;;5110607;28;20040;-68
2023/07/09 06:08:14;;;;;;;11.98;9.10;;;;;;;;;;5112276;28;20467;-68
2023/07/09 06:10:41;;;;;;;13.48;9.60;;;;;;;;;;5111148;28;20043;-68
2023/07/09 06:13:08;;;;;;;14.82;9.88;;;;;;;;;;5107419;28;20108;-68
2023/07/09 06:15:34;;;;;;;16.08;10.02;;;;;;;;;;5105814;28;20077;-68
2023/07/09 06:18:00;;;;;;;18.30;10.82;;;;;;;;;;5111193;28;20110;-68
2023/07/09 06:20:27;;;;;;;14.10;9.98;;;;;;;;;;5110152;28;20044;-68
2023/07/09 06:22:53;;;;;;;17.33;10.13;;;;;;;;;;5112088;28;20481;-68
2023/07/09 06:25:19;;;;;;;14.65;9.82;;;;;;;;;;5104662;28;20101;-68
2023/07/09 06:27:45;;;;;;;15.82;11.02;;;;;;;;;;5106098;28;20048;-68
2023/07/09 06:30:11;;;;;;;17.38;10.80;;;;;;;;;;5111803;28;20545;-68
2023/07/09 06:32:38;;;;;;;17.27;10.77;;;;;;;;;;5110610;28;20185;-68
2023/07/09 06:35:04;;;;;;;16.13;10.63;;;;;;;;;;5110573;28;20031;-68
2023/07/09 06:37:30;;;;;;;17.75;10.27;;;;;;;;;;5102819;28;20040;-68
2023/07/09 06:39:56;;;;;;;14.15;9.85;;;;;;;;;;5103056;28;20116;-68
2023/07/09 06:42:23;;;;;;;18.52;10.60;;;;;;;;;;5111865;28;20040;-68
2023/07/09 06:44:49;;;;;;;14.73;10.63;;;;;;;;;;5098855;28;20044;-69
2023/07/09 06:47:15;;;;;;;19.05;11.50;;;;;;;;;;5110294;27;20039;-68
2023/07/09 06:49:41;;;;;;;15.15;11.13;;;;;;;;;;5111499;28;20058;-69
2023/07/09 06:52:07;;;;;;;17.13;10.60;;;;;;;;;;5111503;28;20097;-69
2023/07/09 06:54:34;;;;;;;20.48;11.40;;;;;;;;;;5092654;28;20069;-68
2023/07/09 06:57:00;;;;;;;15.88;11.70;;;;;;;;;;5113586;28;20046;-68
2023/07/09 06:59:26;;;;;;;15.10;10.93;;;;;;;;;;5115088;28;20685;-68
2023/07/09 07:01:52;;;;;;;15.30;11.50;;;;;;;;;;5113131;27;20097;-69
2023/07/09 07:04:18;;;;;;;21.67;11.60;;;;;;;;;;5113193;28;20115;-68
2023/07/09 07:06:45;;;;;;;19.60;11.50;;;;;;;;;;5108720;27;20043;-68
2023/07/09 07:09:11;;;;;;;17.52;11.13;;;;;;;;;;5127144;27;20088;-68
2023/07/09 07:11:37;;;;;;;17.75;12.30;;;;;;;;;;5113186;28;20395;-69
2023/07/09 07:14:03;;;;;;;16.52;12.40;;;;;;;;;;5113673;27;20043;-69
2023/07/09 07:16:30;;;;;;;18.65;11.45;;;;;;;;;;5114375;28;20367;-69
2023/07/09 07:18:56;;;;;;;16.15;11.73;;;;;;;;;;5114793;28;20044;-69
2023/07/09 07:21:22;;;;;;;15.55;11.40;;;;;;;;;;5113088;27;20036;-69
2023/07/09 07:23:48;;;;;;;16.52;11.90;;;;;;;;;;5113062;28;20040;-69
2023/07/09 07:26:14;;;;;;;16.25;12.35;;;;;;;;;;5113404;28;20046;-68
2023/07/09 07:28:40;;;;;;;16.52;12.27;;;;;;;;;;5112507;28;20460;-68
2023/07/09 07:31:08;;;;;;;19.30;12.90;;;;;;;;;;5113465;28;20051;-68
2023/07/09 07:33:35;;;;;;;17.48;12.98;;;;;;;;;;5109920;28;20087;-68
2023/07/09 07:36:01;;;;;;;21.95;13.73;;;;;;;;;;5125483;27;20052;-69
2023/07/09 07:38:27;;;;;;;19.92;12.52;;;;;;;;;;5108129;28;20423;-68
2023/07/09 07:40:54;;;;;;;18.38;12.95;;;;;;;;;;5102278;27;20121;-68
2023/07/09 07:43:20;;;;;;;15.82;12.23;;;;;;;;;;5099577;27;20581;-69
2023/07/09 07:45:48;;;;;;;20.80;13.23;;;;;;;;;;5100437;28;20044;-68
2023/07/09 07:48:14;;;;;;;18.90;13.95;;;;;;;;;;5095524;27;20055;-68
2023/07/09 07:50:41;;;;;;;18.15;13.60;;;;;;;;;;5113525;28;20090;-69
2023/07/09 07:53:08;;;;;;;19.33;14.15;;;;;;;;;;5112067;28;20138;-69
2023/07/09 07:55:36;;;;;;;17.58;14.05;;;;;;;;;;5112892;28;20067;-69
2023/07/09 07:58:03;;;;;;;19.00;14.40;;;;;;;;;;5094041;28;20051;-69
2023/07/09 08:00:30;;;;;;;23.00;13.70;;;;;;;;;;5113414;28;20051;-69
2023/07/09 08:02:56;;;;;;;19.55;14.38;;;;;;;;;;5111594;27;20050;-69
2023/07/09 08:05:23;;;;;;;22.38;15.38;;;;;;;;;;5104524;27;20478;-69
2023/07/09 08:07:49;;;;;;;20.80;17.00;;;;;;;;;;5112293;28;20051;-69
2023/07/09 08:10:16;;;;;;;20.80;14.85;;;;;;;;;;5111132;27;20039;-68
2023/07/09 08:12:42;;;;;;;25.33;15.27;;;;;;;;;;5107635;28;20053;-68
2023/07/09 08:15:08;;;;;;;20.65;16.05;;;;;;;;;;5111979;27;20051;-69
2023/07/09 08:17:34;;;;;;;27.75;17.10;;;;;;;;;;5112838;28;20561;-69
2023/07/09 08:20:01;;;;;;;19.25;14.85;;;;;;;;;;5113821;28;20122;-69
2023/07/09 08:22:27;;;;;;;21.73;14.98;;;;;;;;;;5104055;28;20051;-69
2023/07/09 08:24:53;;;;;;;23.73;15.80;;;;;;;;;;5112732;28;20031;-69
2023/07/09 08:27:19;;;;;;;20.42;13.82;;;;;;;;;;5112286;28;20046;-69
2023/07/09 08:29:46;;;;;;;20.05;14.38;;;;;;;;;;5109052;27;20166;-69
2023/07/09 08:32:13;;;;;;;19.08;13.60;;;;;;;;;;5112671;28;20040;-69
2023/07/09 08:34:40;;;;;;;17.50;12.77;;;;;;;;;;5113383;27;20113;-69
2023/07/09 08:37:07;;;;;;;18.20;13.13;;;;;;;;;;5111723;27;20047;-69
2023/07/09 08:39:33;;;;;;;20.30;13.10;;;;;;;;;;5105784;27;21869;-69
2023/07/09 08:42:02;;;;;;;16.83;12.45;;;;;;;;;;5103347;27;20191;-69
2023/07/09 08:44:47;;;;;;;16.08;12.25;;;;;;;;;;5103226;28;20032;-69
2023/07/09 08:47:23;;;;;;;16.58;11.43;;;;;;;;;;5101354;28;20043;-69
2023/07/09 08:50:12;;;;;;;15.70;11.52;;;;;;;;;;5101559;27;20052;-72
2023/07/09 08:52:40;;;;;;;14.10;9.73;;;;;;;;;;5098664;28;20054;-68
2023/07/09 08:55:16;;;;;;;15.75;10.07;;;;;;;;;;5111032;28;20051;-69
2023/07/09 08:57:48;;;;;;;17.05;10.63;;;;;;;;;;5110586;28;20500;-68
2023/07/09 09:00:16;;;;;;;15.75;11.40;;;;;;;;;;5109939;28;20067;-68
2023/07/09 09:02:50;;;;;;;19.85;10.60;;;;;;;;;;5112600;28;20039;-69
2023/07/09 09:05:18;;;;;;;16.88;10.75;;;;;;;;;;5105156;28;20044;-68
2023/07/09 09:07:45;;;;;;;17.23;11.18;;;;;;;;;;5108797;28;20039;-68
2023/07/09 09:10:18;;;;;;;14.88;9.90;;;;;;;;;;5103220;28;20407;-68
2023/07/09 09:12:59;;;;;;;17.02;9.50;;;;;;;;;;5094039;28;20521;-68
2023/07/09 09:15:26;;;;;;;15.48;10.18;;;;;;;;;;5097741;28;20066;-69
2023/07/09 09:17:54;;;;;;;15.85;10.43;;;;;;;;;;5098716;28;20134;-73
2023/07/09 09:20:22;;;;;;;16.73;9.63;;;;;;;;;;5098494;28;20043;-73
2023/07/09 09:22:54;;;;;;;16.02;9.73;;;;;;;;;;5094962;27;20127;-72
2023/07/09 09:25:34;;;;;;;14.52;10.50;;;;;;;;;;5085099;28;21213;-72
2023/07/09 09:28:02;;;;;;;11.50;9.45;;;;;;;;;;5098107;28;20499;-73
2023/07/09 09:30:28;;;;;;;13.60;9.15;;;;;;;;;;5109218;28;20058;-68
2023/07/09 09:32:56;;;;;;;15.93;9.23;;;;;;;;;;5111933;28;20044;-68
2023/07/09 09:35:27;;;;;;;13.07;8.95;;;;;;;;;;5108500;28;20373;-68
2023/07/09 09:37:55;;;;;;;13.00;7.90;;;;;;;;;;5113103;27;20039;-69
2023/07/09 09:40:23;;;;;;;13.27;8.35;;;;;;;;;;5111918;28;20036;-69
2023/07/09 09:42:56;;;;;;;12.50;7.55;;;;;;;;;;5111692;28;20039;-68
2023/07/09 09:45:27;;;;;;;14.00;6.90;;;;;;;;;;5110471;28;20119;-68
2023/07/09 09:47:53;;;;;;;10.95;5.90;;;;;;;;;;5094008;28;20047;-69
2023/07/09 09:50:21;;;;;;;10.43;6.85;;;;;;;;;;5108943;28;20069;-68
2023/07/09 09:52:49;;;;;;;8.93;6.47;;;;;;;;;;5111741;28;20038;-68
2023/07/09 09:55:23;;;;;;;8.48;5.45;;;;;;;;;;5110166;28;20039;-69
2023/07/09 09:57:51;;;;;;;8.85;5.40;;;;;;;;;;5109946;28;20047;-68
2023/07/09 10:00:17;;;;;;;6.93;4.68;;;;;;;;;;5111426;28;20387;-69
2023/07/09 10:02:45;;;;;;;8.30;5.05;;;;;;;;;;5101664;28;20043;-69
2023/07/09 10:05:15;;;;;;;10.02;4.57;;;;;;;;;;5111350;28;20092;-69
2023/07/09 10:07:45;;;;;;;7.78;4.80;;;;;;;;;;5111999;28;20050;-68
2023/07/09 10:10:19;;;;;;;8.70;4.95;;;;;;;;;;5104361;28;20047;-68
2023/07/09 10:12:53;;;;;;;9.93;4.68;;;;;;;;;;5109827;28;20043;-68
2023/07/09 10:15:26;;;;;;;8.55;4.38;;;;;;;;;;5109070;28;20258;-69
2023/07/09 10:17:55;;;;;;;8.43;4.60;;;;;;;;;;5110126;28;20040;-68
2023/07/09 10:20:30;;;;;;;9.68;5.32;;;;;;;;;;5111320;28;20444;-68
2023/07/09 10:23:05;;;;;;;10.18;5.20;;;;;;;;;;5109900;28;20067;-70
2023/07/09 10:25:45;;;;;;;11.43;5.28;;;;;;;;;;5108657;28;20037;-69
2023/07/09 10:28:17;;;;;;;12.13;5.40;;;;;;;;;;5104385;28;20380;-70
2023/07/09 10:31:06;;;;;;;14.15;6.38;;;;;;;;;;5110464;28;20047;-71
2023/07/09 10:33:35;;;;;;;9.85;5.30;;;;;;;;;;5131554;27;20127;-71
2023/07/09 10:36:12;;;;;;;8.93;5.10;;;;;;;;;;5114475;28;20079;-72
2023/07/09 10:38:47;;;;;;;9.43;5.05;;;;;;;;;;5114780;28;20043;-72
2023/07/09 10:41:14;;;;;;;8.70;5.25;;;;;;;;;;5112974;27;20050;-72
2023/07/09 10:43:45;;;;;;;7.30;4.57;;;;;;;;;;5121366;27;20490;-72
2023/07/09 10:46:18;;;;;;;9.70;4.93;;;;;;;;;;5113596;28;20104;-72
2023/07/09 10:48:49;;;;;;;7.90;5.00;;;;;;;;;;5114861;28;20048;-72
2023/07/09 10:51:21;;;;;;;11.68;5.60;;;;;;;;;;5096773;28;20047;-72
2023/07/09 10:53:47;;;;;;;;;;;;;;;;;;5110106;28;20491;-70
2023/07/09 10:56:20;;;;;;;8.27;4.65;;;;;;;;;;5108555;27;20333;-70
2023/07/09 10:58:46;;;;;;;;;;;;;;;;;;5102027;27;20137;-69
2023/07/09 11:01:14;;;;;;;8.73;4.55;;;;;;;;;;5124863;27;19926;-70
2023/07/09 11:03:45;;;;;;;9.52;4.82;;;;;;;;;;5127311;27;20059;-72
2023/07/09 11:06:25;;;;;;;10.48;4.60;;;;;;;;;;5111853;28;20043;-70
2023/07/09 11:08:53;;;;;;;10.85;4.55;;;;;;;;;;5106181;28;20562;-70
2023/07/09 11:11:26;;;;;;;7.50;4.80;;;;;;;;;;5116723;27;20380;-70
2023/07/09 11:13:57;;;;;;;6.95;4.50;;;;;;;;;;5113906;28;20040;-70
2023/07/09 11:16:31;;;;;;;6.75;4.20;;;;;;;;;;5111610;27;20058;-70
2023/07/09 11:19:03;;;;;;;9.38;4.45;;;;;;;;;;5112897;28;20048;-70
2023/07/09 11:21:29;;;;;;;6.88;3.95;;;;;;;;;;5110056;27;20048;-70
2023/07/09 11:23:59;;;;;;;8.50;4.47;;;;;;;;;;5108209;27;20050;-79
2023/07/09 11:26:25;;;;;;;9.43;4.18;;;;;;;;;;5111547;27;20039;-70
2023/07/09 11:28:56;;;;;;;8.88;4.63;;;;;;;;;;5112106;27;20376;-71
2023/07/09 11:31:24;;;;;;;6.82;4.13;;;;;;;;;;5090246;28;20046;-69
2023/07/09 11:33:59;;;;;;;8.25;4.50;;;;;;;;;;5116270;27;20461;-70
2023/07/09 11:36:27;;;;;;;7.20;4.28;;;;;;;;;;5113065;28;20051;-70
2023/07/09 11:38:53;;;;;;;9.07;4.50;;;;;;;;;;5114549;28;20035;-70
2023/07/09 11:41:26;;;;;;;8.48;4.40;;;;;;;;;;5111828;28;20073;-69
2023/07/09 11:43:52;;;;;;;;;;;;;;;;;;5113092;27;20093;-69
2023/07/09 11:46:19;;;;;;;10.15;4.85;;;;;;;;;;5114599;27;19929;-70
2023/07/09 11:48:46;;;;;;;8.52;4.10;;;;;;;;;;5110649;28;20047;-70
2023/07/09 11:51:21;;;;;;;10.98;4.43;;;;;;;;;;5112727;27;20047;-70
2023/07/09 11:53:48;;;;;;;9.93;4.35;;;;;;;;;;5113902;27;20055;-70
2023/07/09 11:56:14;;;;;;;7.57;4.70;;;;;;;;;;5111802;27;20048;-70
2023/07/09 11:58:50;;;;;;;8.73;4.15;;;;;;;;;;5112626;28;20077;-70
2023/07/09 12:01:18;;;;;;;8.10;4.10;;;;;;;;;;5110081;27;20501;-67
2023/07/09 12:03:46;;;;;;;6.90;4.40;;;;;;;;;;5111351;28;20047;-70
2023/07/09 12:06:22;;;;;;;9.13;4.68;;;;;;;;;;5112820;28;20066;-70
2023/07/09 12:08:49;;;;;;;9.15;4.70;;;;;;;;;;5113334;27;20075;-71
2023/07/09 12:11:34;;;;;;;7.00;4.05;;;;;;;;;;5111349;28;20039;-70
2023/07/09 12:14:10;;;;;;;12.00;5.18;;;;;;;;;;5112575;27;20491;-68
2023/07/09 12:16:39;;;;;;;9.50;4.95;;;;;;;;;;5107154;27;20075;-69
2023/07/09 12:19:05;;;;;;;6.55;4.13;;;;;;;;;;5142092;27;20051;-69
2023/07/09 12:21:32;;;;;;;8.32;3.92;;;;;;;;;;5113887;28;20048;-70
2023/07/09 12:23:59;;;;;;;7.80;4.93;;;;;;;;;;5111072;28;20518;-69
2023/07/09 12:26:25;;;;;;;6.05;4.03;;;;;;;;;;5111984;28;20188;-70
2023/07/09 12:28:55;;;;;;;7.00;4.85;;;;;;;;;;5111893;28;20048;-71
2023/07/09 12:31:28;;;;;;;6.68;4.05;;;;;;;;;;5111447;28;20352;-69
2023/07/09 12:33:57;;;;;;;8.07;4.10;;;;;;;;;;5114040;27;20047;-69
2023/07/09 12:36:24;;;;;;;7.25;4.20;;;;;;;;;;5113447;28;20039;-69
2023/07/09 12:38:52;;;;;;;9.10;4.40;;;;;;;;;;5097232;28;20127;-69
2023/07/09 12:41:28;;;;;;;6.47;4.00;;;;;;;;;;5111955;28;20466;-69
2023/07/09 12:43:55;;;;;;;7.60;4.53;;;;;;;;;;5113977;27;20046;-69
2023/07/09 12:46:22;;;;;;;6.63;4.28;;;;;;;;;;5110943;28;20402;-69
2023/07/09 12:48:52;;;;;;;8.32;4.57;;;;;;;;;;5111631;28;20157;-69
2023/07/09 12:51:27;;;;;;;7.05;4.25;;;;;;;;;;5111326;28;20462;-69
2023/07/09 12:54:12;;;;;;;6.15;4.10;;;;;;;;;;5111857;28;20118;-69
2023/07/09 12:56:38;;;;;;;8.57;4.68;;;;;;;;;;5113057;27;20054;-69
2023/07/09 12:59:24;;;;;;;9.25;4.97;;;;;;;;;;5108060;28;20051;-69
2023/07/09 13:01:55;;;;;;;7.25;5.10;;;;;;;;;;5095716;28;20053;-69
2023/07/09 13:04:21;;;;;;;9.40;4.00;;;;;;;;;;5098670;28;20115;-69
2023/07/09 13:06:47;;;;;;;7.35;4.40;;;;;;;;;;5110886;28;20451;-74
2023/07/09 13:09:21;;;;;;;11.73;4.38;;;;;;;;;;5110783;28;20126;-68
2023/07/09 13:11:47;;;;;;;7.32;4.38;;;;;;;;;;5112367;27;20035;-68
2023/07/09 13:14:25;;;;;;;8.75;4.68;;;;;;;;;;5111013;27;20479;-68
2023/07/09 13:16:51;;;;;;;9.13;5.20;;;;;;;;;;5103333;28;20165;-68
2023/07/09 13:19:18;;;;;;;6.65;4.97;;;;;;;;;;5112056;27;20047;-70
2023/07/09 13:21:45;;;;;;;7.25;4.82;;;;;;;;;;5112909;27;20035;-68
2023/07/09 13:24:22;;;;;;;7.15;4.68;;;;;;;;;;5111858;28;20094;-68
2023/07/09 13:26:49;;;;;;;8.38;5.10;;;;;;;;;;5107841;28;20501;-69
2023/07/09 13:29:17;;;;;;;6.40;4.28;;;;;;;;;;5111783;28;20049;-69
2023/07/09 13:31:44;;;;;;;6.50;4.65;;;;;;;;;;5112477;28;20410;-68
2023/07/09 13:34:33;;;;;;;8.65;4.88;;;;;;;;;;5110363;28;20081;-68
2023/07/09 13:36:59;;;;;;;12.38;5.10;;;;;;;;;;5110201;27;20410;-68
2023/07/09 13:39:25;;;;;;;10.93;5.30;;;;;;;;;;5112328;28;20454;-68
2023/07/09 13:41:53;;;;;;;9.98;5.13;;;;;;;;;;5109380;27;20073;-68
2023/07/09 13:44:21;;;;;;;7.75;5.00;;;;;;;;;;5110630;28;20035;-68
2023/07/09 13:46:48;;;;;;;9.32;5.20;;;;;;;;;;5126073;27;20126;-68
2023/07/09 13:49:17;;;;;;;9.88;5.53;;;;;;;;;;5110028;28;20126;-68
2023/07/09 13:51:44;;;;;;;7.28;4.90;;;;;;;;;;5108068;28;20047;-75
2023/07/09 13:54:16;;;;;;;8.60;4.95;;;;;;;;;;5127112;27;20043;-67
2023/07/09 13:56:42;;;;;;;9.98;5.68;;;;;;;;;;5104701;28;20055;-68
2023/07/09 13:59:16;;;;;;;10.13;5.00;;;;;;;;;;5111086;28;20399;-68
2023/07/09 14:01:43;;;;;;;7.85;5.35;;;;;;;;;;5111408;28;20123;-68
2023/07/09 14:04:11;;;;;;;6.85;4.65;;;;;;;;;;5110696;28;20471;-68
2023/07/09 14:06:38;;;;;;;7.28;4.55;;;;;;;;;;5108091;28;20044;-68
2023/07/09 14:09:04;;;;;;;9.30;4.70;;;;;;;;;;5108732;27;20035;-68
2023/07/09 14:11:31;;;;;;;8.90;5.30;;;;;;;;;;5116111;28;20052;-68
2023/07/09 14:13:57;;;;;;;8.73;4.60;;;;;;;;;;5106859;28;20372;-68
2023/07/09 14:16:23;;;;;;;7.95;5.20;;;;;;;;;;5115266;28;20046;-66
2023/07/09 14:18:50;;;;;;;18.85;4.82;;;;;;;;;;5114987;27;20036;-68
2023/07/09 14:21:24;;;;;;;9.02;4.65;;;;;;;;;;5103589;28;20101;-68
2023/07/09 14:23:50;;;;;;;13.15;4.63;;;;;;;;;;5110755;28;20081;-68
2023/07/09 14:26:16;;;;;;;11.45;4.00;;;;;;;;;;5113348;28;20127;-68
2023/07/09 14:28:43;;;;;;;8.13;4.30;;;;;;;;;;5108586;27;20549;-68
2023/07/09 14:31:24;;;;;;;7.75;3.90;;;;;;;;;;5114042;28;20126;-68
2023/07/09 14:33:50;;;;;;;12.60;4.78;;;;;;;;;;5115790;27;20067;-68
2023/07/09 14:36:16;;;;;;;10.13;4.78;;;;;;;;;;5113310;28;20051;-68